Disclaimer

Please do not use the information listed here in-flight or in-navigation, as they are not provided to us by the airports but are provided by volunteers, so they might be outdated.

Search


Regions


Airport information page

Radio informations:
Tower (TWR) - 129.4 MHz
Ground (GND) - 120.3 MHz
Approach/Departure (APP/DEP) - 131.6 MHz

Airport informations:
Latitude: 34° 33' 57.07" N
Longitude: 069° 12' 44.38" E
Elevation: 5877 feet - 1791 meters
Operating hours: From sunrise to sunset (SR-SS)
Operating agency: Military-civil joint use airport
Timezone: UTC+4:30
Fuel: Jet A1, without icing nhibitor.

Runway information:
11/29 - 11483 x 164 feet< - >3500 x 50 meters

Recent METARs:
OAKB 151150Z 33005KT CAVOK 13/M10 Q1023 NOSIG RMK A3021 BLU BLU
OAKB 151150Z 33005KT CAVOK 13/M10 Q1023 NOSIG RMK A3021 BLU BLU
OAKB 151250Z 32003KT CAVOK 11/M10 Q1023 NOSIG RMK A3021 BLU BLU

Airport on the map: